Time;durP1;ratioP1;P1;durP2;ratioP2;P2;SDS_P1;SDS_P2;PMS_P1;PMS_P2;Temp;Humidity;BMP_temperature;BMP_pressure;BME280_temperature;BME280_humidity;BME280_pressure;Samples;Min_cycle;Max_cycle;Signal;HPM_P1;HPM_P2
2023/07/26 00:13:20;;;;;;;20.53;18.47;;;14.00;99.90;;;;;;4999936;28;20444;-80
2023/07/26 00:16:25;;;;;;;20.53;18.57;;;14.00;99.90;;;;;;5019857;28;20558;-81
2023/07/26 00:22:32;;;;;;;19.60;17.80;;;14.00;99.90;;;;;;5005771;28;20500;-81
2023/07/26 00:25:10;;;;;;;20.40;18.50;;;14.00;99.90;;;;;;5030536;28;20470;-81
2023/07/26 00:27:59;;;;;;;21.10;19.10;;;14.00;99.90;;;;;;5088834;28;20476;-79
2023/07/26 00:33:29;;;;;;;20.17;18.27;;;14.00;99.90;;;;;;5080569;28;20425;-80
2023/07/26 00:36:18;;;;;;;19.83;17.97;;;14.10;99.90;;;;;;5085698;28;20465;-81
2023/07/26 00:38:55;;;;;;;20.70;18.70;;;14.00;99.90;;;;;;5083471;28;20445;-79
2023/07/26 00:42:01;;;;;;;19.37;17.57;;;14.00;99.90;;;;;;5081464;28;20823;-79
2023/07/26 00:45:03;;;;;;;20.20;18.40;;;14.00;99.90;;;;;;5082914;28;20461;-80
2023/07/26 00:47:41;;;;;;;19.40;17.50;;;14.10;99.90;;;;;;5063035;28;20691;-80
2023/07/26 00:53:48;;;;;;;18.57;16.70;;;14.00;99.90;;;;;;5079322;28;20469;-80
2023/07/26 00:57:03;;;;;;;18.37;16.57;;;14.10;99.90;;;;;;5085878;28;20478;-79
2023/07/26 01:06:52;;;;;;;18.37;16.27;;;14.10;99.90;;;;;;5048504;28;20895;-81
2023/07/26 01:13:41;;;;;;;;;;;;;;;;;;;;;
2023/07/26 01:17:07;;;;;;;;;;;;;;;;;;;;;
2023/07/26 01:20:20;;;;;;;13.30;12.10;;;14.00;99.90;;;;;;5033192;28;20453;-81
2023/07/26 01:26:46;;;;;;;12.10;11.00;;;14.20;99.90;;;;;;5030450;28;20459;-81
2023/07/26 01:29:19;;;;;;;10.43;9.37;;;14.00;99.90;;;;;;5097775;28;20471;-80
2023/07/26 01:31:54;;;;;;;10.07;9.17;;;13.90;99.90;;;;;;5097537;28;20468;-80
2023/07/26 01:34:29;;;;;;;10.20;9.40;;;13.70;99.90;;;;;;5098038;28;20472;-81
2023/07/26 01:37:02;;;;;;;10.50;9.57;;;13.90;99.90;;;;;;5099888;28;20447;-79
2023/07/26 01:39:34;;;;;;;8.93;8.07;;;13.90;99.90;;;;;;5098046;28;20944;-80
2023/07/26 01:42:05;;;;;;;9.33;8.20;;;13.90;99.90;;;;;;5099737;28;20496;-81
2023/07/26 01:44:49;;;;;;;10.50;8.77;;;13.90;99.90;;;;;;5098024;28;20491;-80
2023/07/26 01:47:40;;;;;;;9.93;8.93;;;13.90;99.90;;;;;;5097930;28;20465;-80
2023/07/26 01:50:17;;;;;;;8.67;7.97;;;13.90;99.90;;;;;;5096066;28;20480;-79
2023/07/26 01:53:11;;;;;;;9.10;8.10;;;13.90;99.90;;;;;;5095549;28;20547;-80
2023/07/26 01:55:53;;;;;;;9.93;9.10;;;13.90;99.90;;;;;;5094764;28;20541;-80
2023/07/26 01:58:25;;;;;;;9.37;8.50;;;13.90;99.90;;;;;;5095738;28;20517;-81
2023/07/26 02:00:53;;;;;;;9.57;8.67;;;13.80;99.90;;;;;;5095610;28;20994;-80
2023/07/26 02:03:38;;;;;;;8.20;7.60;;;13.90;99.90;;;;;;5095722;28;20539;-78
2023/07/26 02:06:18;;;;;;;10.23;8.47;;;14.00;99.90;;;;;;5094965;28;20495;-81
2023/07/26 02:09:02;;;;;;;7.80;7.20;;;13.90;99.90;;;;;;5096422;28;20524;-79
2023/07/26 02:15:04;;;;;;;8.90;8.20;;;13.90;99.90;;;;;;5090463;28;21050;-80
2023/07/26 02:17:43;;;;;;;8.67;8.07;;;14.00;99.90;;;;;;5095498;28;20523;-81
2023/07/26 02:20:26;;;;;;;8.80;8.10;;;13.70;99.90;;;;;;5096479;28;20444;-80
2023/07/26 02:23:36;;;;;;;8.83;8.23;;;14.00;99.90;;;;;;5098497;28;20525;-81
2023/07/26 02:26:10;;;;;;;9.10;8.30;;;14.00;99.90;;;;;;5108154;28;20448;-79
2023/07/26 02:28:38;;;;;;;8.30;7.50;;;14.00;99.90;;;;;;5108611;28;20444;-80
2023/07/26 02:31:11;;;;;;;8.37;7.70;;;13.90;99.90;;;;;;5109430;28;20471;-80
2023/07/26 02:33:44;;;;;;;8.00;7.20;;;13.90;99.90;;;;;;5108681;28;20436;-80
2023/07/26 02:36:29;;;;;;;7.90;7.30;;;13.90;99.90;;;;;;5109966;28;20465;-79
2023/07/26 02:39:11;;;;;;;7.70;7.20;;;13.90;99.90;;;;;;5108144;28;20445;-79
2023/07/26 02:47:57;;;;;;;8.23;7.57;;;14.00;99.90;;;;;;5095590;28;20529;-81
2023/07/26 02:50:32;;;;;;;7.63;6.73;;;14.00;99.90;;;;;;5091328;28;20482;-80
2023/07/26 02:53:02;;;;;;;7.53;6.93;;;13.90;99.90;;;;;;5097358;28;20448;-81
2023/07/26 02:58:41;;;;;;;7.07;6.40;;;13.80;99.90;;;;;;5104414;28;20437;-81
2023/07/26 03:07:46;;;;;;;7.60;6.60;;;13.70;99.90;;;;;;4870339;27;8168492;-79
2023/07/26 03:10:34;;;;;;;6.27;5.77;;;13.70;99.90;;;;;;5158270;27;20332;-80
2023/07/26 03:13:07;;;;;;;7.43;6.63;;;13.70;99.90;;;;;;5157945;27;20471;-80
2023/07/26 03:15:57;;;;;;;10.20;6.40;;;13.70;99.90;;;;;;5142707;27;20447;-81
2023/07/26 03:18:35;;;;;;;10.13;6.23;;;13.70;99.90;;;;;;5138712;28;20781;-80
2023/07/26 03:21:27;;;;;;;6.10;5.50;;;13.60;99.90;;;;;;5148047;27;20435;-81
2023/07/26 03:24:23;;;;;;;6.40;5.90;;;13.70;99.90;;;;;;5129840;28;20478;-78
2023/07/26 03:27:03;;;;;;;5.93;5.50;;;13.60;99.90;;;;;;5131700;28;20460;-77
2023/07/26 03:36:10;;;;;;;6.27;5.77;;;13.60;99.90;;;;;;5128993;28;21082;-78
2023/07/26 03:38:47;;;;;;;7.00;6.30;;;13.60;99.90;;;;;;5133406;28;20510;-77
2023/07/26 03:41:27;;;;;;;6.53;6.00;;;13.60;99.90;;;;;;5133355;28;20469;-77
2023/07/26 03:44:21;;;;;;;5.90;5.50;;;13.60;99.90;;;;;;5132546;28;20411;-77
2023/07/26 03:50:28;;;;;;;6.80;6.30;;;13.50;99.90;;;;;;5122116;28;20435;-77
2023/07/26 03:56:13;;;;;;;6.27;5.77;;;13.40;99.90;;;;;;5096221;28;20478;-80
2023/07/26 04:01:55;;;;;;;7.30;6.70;;;13.00;99.90;;;;;;5131577;28;20448;-77
2023/07/26 04:04:33;;;;;;;7.37;6.73;;;12.90;99.90;;;;;;5132734;28;20482;-77
2023/07/26 04:07:04;;;;;;;6.80;6.40;;;13.30;99.90;;;;;;5133213;28;20514;-75
2023/07/26 04:09:44;;;;;;;7.10;6.60;;;13.30;99.90;;;;;;5133206;28;20448;-77
2023/07/26 04:12:29;;;;;;;10.90;6.87;;;13.30;99.90;;;;;;5132827;28;20459;-77
2023/07/26 04:15:07;;;;;;;7.67;6.50;;;13.30;99.90;;;;;;5132994;28;20472;-77
2023/07/26 04:17:53;;;;;;;10.20;6.80;;;13.30;99.90;;;;;;5123291;28;20503;-77
2023/07/26 04:20:26;;;;;;;7.70;7.10;;;13.30;99.90;;;;;;5117225;28;20519;-79
2023/07/26 04:22:54;;;;;;;7.67;6.97;;;13.60;99.90;;;;;;5115641;28;20416;-78
2023/07/26 04:25:32;;;;;;;7.57;6.90;;;13.30;99.90;;;;;;5116275;28;20483;-78
2023/07/26 04:28:20;;;;;;;8.00;7.30;;;13.40;99.90;;;;;;5114859;28;20426;-79
2023/07/26 04:30:57;;;;;;;9.23;8.33;;;13.40;99.90;;;;;;5115569;28;20448;-80
2023/07/26 04:33:51;;;;;;;;;;;;;;;;;;;;;
2023/07/26 04:39:48;;;;;;;7.47;6.63;;;13.50;99.90;;;;;;5115182;28;20522;-78
2023/07/26 04:42:29;;;;;;;7.87;7.17;;;13.50;99.90;;;;;;5109860;28;20474;-81
2023/07/26 04:45:18;;;;;;;8.33;7.53;;;13.30;99.90;;;;;;5114443;28;20473;-77
2023/07/26 04:48:32;;;;;;;7.63;7.00;;;13.60;99.90;;;;;;5116200;28;20478;-78
2023/07/26 04:51:08;;;;;;;7.20;6.70;;;13.50;99.90;;;;;;5108770;28;20497;-82
2023/07/26 04:54:11;;;;;;;8.53;7.73;;;13.60;99.90;;;;;;5115490;28;20468;-78
2023/07/26 04:57:30;;;;;;;8.13;7.43;;;13.60;99.90;;;;;;5127927;28;20435;-78
2023/07/26 05:03:17;;;;;;;7.83;7.23;;;13.70;99.90;;;;;;5131558;28;20415;-79
2023/07/26 05:05:55;;;;;;;8.10;6.73;;;13.60;99.90;;;;;;5132415;27;20642;-81
2023/07/26 05:08:47;;;;;;;8.43;7.67;;;13.60;99.90;;;;;;5129645;28;20451;-79
2023/07/26 05:11:46;;;;;;;8.33;7.50;;;13.60;99.90;;;;;;5132116;28;20450;-79
2023/07/26 05:14:39;;;;;;;9.77;7.30;;;13.70;99.90;;;;;;5129162;28;20543;-79
2023/07/26 05:20:08;;;;;;;7.83;7.20;;;13.60;99.90;;;;;;5124585;28;20462;-79
2023/07/26 05:22:51;;;;;;;7.67;6.80;;;13.70;99.90;;;;;;5129686;27;20448;-77
2023/07/26 05:25:37;;;;;;;7.30;6.80;;;13.70;99.90;;;;;;5132656;28;20494;-79
2023/07/26 05:28:20;;;;;;;7.13;6.63;;;13.70;99.90;;;;;;5133278;28;20404;-81
2023/07/26 05:31:26;;;;;;;7.80;7.23;;;13.70;99.90;;;;;;5131945;28;20491;-80
2023/07/26 05:34:15;;;;;;;6.97;6.40;;;13.90;99.90;;;;;;5133776;28;20451;-79
2023/07/26 05:47:37;;;;;;;;;;;;;;;;;;;;;
2023/07/26 05:50:49;;;;;;;;;;;;;;;;;;;;;
2023/07/26 05:53:42;;;;;;;6.33;5.77;;;14.10;99.90;;;;;;5127251;28;20445;-79
2023/07/26 05:56:21;;;;;;;6.10;5.60;;;14.20;99.90;;;;;;5136885;28;20477;-78
2023/07/26 05:58:56;;;;;;;5.60;5.20;;;14.30;99.90;;;;;;5135937;28;20461;-77
2023/07/26 06:01:52;;;;;;;6.50;5.90;;;14.40;99.90;;;;;;5137208;28;20437;-78
2023/07/26 06:04:27;;;;;;;5.57;5.17;;;14.50;99.90;;;;;;5136545;28;20470;-79
2023/07/26 06:07:13;;;;;;;6.50;6.00;;;14.50;99.90;;;;;;5137079;28;20448;-77
2023/07/26 06:10:16;;;;;;;7.30;6.47;;;14.50;99.90;;;;;;5136917;28;20414;-77
2023/07/26 06:13:04;;;;;;;6.30;5.70;;;14.60;99.90;;;;;;5136675;28;20471;-79
2023/07/26 06:15:42;;;;;;;5.30;4.80;;;14.60;99.90;;;;;;5124869;28;20489;-79
2023/07/26 06:18:16;;;;;;;5.60;5.10;;;14.70;99.90;;;;;;5124773;28;20451;-79
2023/07/26 06:20:57;;;;;;;5.60;5.20;;;14.70;99.90;;;;;;5127146;28;20448;-79
2023/07/26 06:23:45;;;;;;;5.07;4.77;;;14.80;99.90;;;;;;5089765;28;20456;-80
2023/07/26 06:26:23;;;;;;;5.27;4.87;;;14.90;99.90;;;;;;5086364;28;20482;-80
2023/07/26 06:29:16;;;;;;;7.70;5.00;;;14.90;99.90;;;;;;5083774;28;20449;-79
2023/07/26 06:32:14;;;;;;;5.70;5.10;;;14.90;99.90;;;;;;5084553;28;20934;-79
2023/07/26 06:34:56;;;;;;;5.40;4.90;;;15.00;99.90;;;;;;5080984;28;20473;-81
2023/07/26 06:37:30;;;;;;;6.30;5.23;;;15.10;99.90;;;;;;5080074;28;20459;-79
2023/07/26 06:40:01;;;;;;;5.20;4.80;;;15.10;99.90;;;;;;5080518;28;20542;-79
2023/07/26 06:42:38;;;;;;;5.33;4.93;;;15.20;99.90;;;;;;5083898;28;20424;-78
2023/07/26 06:45:10;;;;;;;4.80;4.50;;;15.20;99.90;;;;;;5085444;28;20479;-79
2023/07/26 06:47:48;;;;;;;5.30;4.90;;;15.20;99.90;;;;;;5086544;28;20571;-79
2023/07/26 06:50:26;;;;;;;4.73;4.33;;;15.20;99.90;;;;;;5084136;28;20464;-80
2023/07/26 06:53:00;;;;;;;5.27;4.97;;;15.20;99.90;;;;;;5083875;28;20450;-79
2023/07/26 06:55:42;;;;;;;4.90;4.50;;;15.30;99.90;;;;;;5081094;28;20483;-79
2023/07/26 06:58:23;;;;;;;6.20;4.63;;;15.30;99.90;;;;;;5078760;28;20541;-79
2023/07/26 07:00:52;;;;;;;4.97;4.53;;;15.20;99.90;;;;;;5080403;28;20455;-81
2023/07/26 07:03:20;;;;;;;6.73;4.67;;;15.20;99.90;;;;;;5081893;28;20479;-81
2023/07/26 07:05:54;;;;;;;6.63;5.47;;;15.10;99.90;;;;;;5099536;28;20828;-79
2023/07/26 07:08:25;;;;;;;5.00;4.70;;;15.20;99.90;;;;;;5099456;28;20446;-79
2023/07/26 07:11:06;;;;;;;6.23;5.63;;;15.20;99.90;;;;;;5098544;28;20463;-80
2023/07/26 07:13:51;;;;;;;6.13;5.53;;;15.20;99.90;;;;;;5093686;28;20442;-81
2023/07/26 07:16:28;;;;;;;7.00;5.93;;;15.10;99.90;;;;;;5101806;28;20529;-80
2023/07/26 07:22:14;;;;;;;6.20;5.60;;;15.00;99.90;;;;;;5070935;28;20506;-80
2023/07/26 07:25:07;;;;;;;5.20;4.70;;;15.00;99.90;;;;;;5105689;28;20526;-81
2023/07/26 07:27:46;;;;;;;6.63;6.13;;;15.00;99.90;;;;;;5101268;28;20476;-80
2023/07/26 07:30:26;;;;;;;8.27;5.30;;;14.60;99.90;;;;;;5099535;28;20447;-78
2023/07/26 07:33:03;;;;;;;6.17;5.77;;;15.00;99.90;;;;;;5103173;28;20432;-79
2023/07/26 07:35:59;;;;;;;6.30;5.80;;;14.90;99.90;;;;;;5102144;28;20444;-80
2023/07/26 07:38:58;;;;;;;6.63;6.13;;;15.00;99.90;;;;;;5100661;28;20551;-79
2023/07/26 07:41:35;;;;;;;6.30;5.70;;;15.00;99.90;;;;;;5077477;28;20458;-79
2023/07/26 07:44:45;;;;;;;6.83;6.07;;;15.10;99.90;;;;;;5099113;28;20515;-79
2023/07/26 07:47:31;;;;;;;9.00;6.30;;;15.00;99.90;;;;;;5102394;28;20564;-79
2023/07/26 07:50:28;;;;;;;6.53;6.03;;;14.90;99.90;;;;;;5099193;28;20468;-79
2023/07/26 07:53:02;;;;;;;6.60;6.00;;;14.80;99.90;;;;;;5100783;28;20941;-80
2023/07/26 07:58:44;;;;;;;6.80;6.30;;;15.10;99.90;;;;;;5019714;28;20425;-80
2023/07/26 08:01:47;;;;;;;6.70;6.10;;;15.10;99.90;;;;;;5018012;28;20461;-79
2023/07/26 08:04:53;;;;;;;7.00;6.40;;;15.10;99.90;;;;;;4963281;28;20901;-79
2023/07/26 08:07:52;;;;;;;6.60;6.20;;;15.00;99.90;;;;;;5018845;28;20568;-79
2023/07/26 08:10:46;;;;;;;6.90;6.20;;;14.90;99.90;;;;;;5083695;28;20547;-79
2023/07/26 08:13:49;;;;;;;6.60;6.10;;;14.80;99.90;;;;;;5101964;28;20495;-81
2023/07/26 08:16:31;;;;;;;8.40;5.60;;;14.90;99.90;;;;;;5102137;28;20455;-80
2023/07/26 08:19:07;;;;;;;5.90;5.30;;;14.70;99.90;;;;;;5102764;28;20454;-79
2023/07/26 08:21:50;;;;;;;6.23;5.83;;;14.40;99.90;;;;;;5102315;28;20472;-81
2023/07/26 08:27:15;;;;;;;5.17;4.67;;;14.90;99.90;;;;;;5102008;28;20475;-80
2023/07/26 08:29:49;;;;;;;5.60;5.10;;;14.90;99.90;;;;;;5103822;28;20452;-79
2023/07/26 08:36:58;;;;;;;4.60;4.20;;;14.70;99.90;;;;;;5038477;28;20463;-78
2023/07/26 08:43:30;;;;;;;5.40;5.00;;;14.80;99.90;;;;;;5074863;28;20450;-82
2023/07/26 08:46:34;;;;;;;5.23;4.60;;;14.80;99.90;;;;;;5093875;28;20470;-81
2023/07/26 08:49:12;;;;;;;4.77;4.47;;;15.00;99.90;;;;;;5103916;28;20454;-79
2023/07/26 08:51:52;;;;;;;5.17;4.87;;;15.10;99.90;;;;;;5104600;28;20471;-81
2023/07/26 08:54:39;;;;;;;4.90;4.57;;;15.10;99.90;;;;;;5101814;28;20453;-79
2023/07/26 08:57:16;;;;;;;4.47;4.07;;;15.20;99.90;;;;;;5103908;28;20442;-80
2023/07/26 09:00:05;;;;;;;4.17;3.77;;;15.40;99.90;;;;;;5113391;28;20444;-80
2023/07/26 09:02:36;;;;;;;3.30;3.00;;;15.50;99.90;;;;;;5106888;28;20470;-80
2023/07/26 09:05:23;;;;;;;3.63;3.33;;;15.50;99.90;;;;;;5101059;28;20468;-80
2023/07/26 09:08:03;;;;;;;2.37;2.17;;;15.70;99.90;;;;;;5101157;28;20503;-80
2023/07/26 09:10:45;;;;;;;2.40;2.30;;;15.80;99.90;;;;;;5102682;28;20899;-80
2023/07/26 09:13:29;;;;;;;2.30;2.20;;;15.90;99.90;;;;;;5102431;28;20448;-78
2023/07/26 09:16:08;;;;;;;1.43;1.43;;;16.00;99.90;;;;;;5101155;28;20464;-78
2023/07/26 09:19:05;;;;;;;1.70;1.60;;;15.80;99.90;;;;;;5101007;28;20477;-82
2023/07/26 09:22:14;;;;;;;1.57;1.47;;;15.70;99.90;;;;;;5081765;28;20450;-81
2023/07/26 09:24:59;;;;;;;1.40;1.30;;;15.60;99.90;;;;;;5082817;28;20478;-83
2023/07/26 09:28:02;;;;;;;1.90;1.80;;;15.60;99.90;;;;;;5098354;28;20471;-80
2023/07/26 09:30:30;;;;;;;1.60;1.50;;;16.10;99.90;;;;;;5106157;28;20447;-83
2023/07/26 09:33:15;;;;;;;2.37;1.60;;;16.20;99.90;;;;;;5105323;28;20926;-80
2023/07/26 09:35:49;;;;;;;1.90;1.67;;;16.10;99.90;;;;;;5099409;28;20543;-81
2023/07/26 09:38:38;;;;;;;1.70;1.60;;;16.20;99.90;;;;;;5108833;28;20800;-79
2023/07/26 09:41:33;;;;;;;1.10;1.10;;;16.20;99.90;;;;;;5104802;28;20450;-78
2023/07/26 09:44:10;;;;;;;1.50;1.40;;;16.20;99.90;;;;;;5100679;28;20497;-81
2023/07/26 09:46:51;;;;;;;1.60;1.50;;;16.10;99.90;;;;;;5101040;28;20443;-79
2023/07/26 09:49:29;;;;;;;2.00;1.80;;;16.20;99.90;;;;;;5102334;28;20454;-79
2023/07/26 09:52:03;;;;;;;2.23;2.03;;;16.00;99.90;;;;;;5103659;28;20485;-81
2023/07/26 09:54:39;;;;;;;1.47;1.47;;;15.90;99.90;;;;;;5104677;28;20471;-80
2023/07/26 09:57:21;;;;;;;1.63;1.57;;;15.50;99.90;;;;;;5096838;28;20446;-81
2023/07/26 09:59:53;;;;;;;1.63;1.53;;;15.30;99.90;;;;;;5104012;28;20432;-80
2023/07/26 10:02:28;;;;;;;2.20;1.90;;;15.60;99.90;;;;;;5094469;28;20549;-79
2023/07/26 10:05:13;;;;;;;3.37;1.40;;;16.20;99.90;;;;;;5096856;28;20456;-80
2023/07/26 10:07:50;;;;;;;1.80;1.70;;;16.10;99.90;;;;;;5091853;28;20558;-81
2023/07/26 10:10:37;;;;;;;1.80;1.70;;;16.30;99.90;;;;;;5095566;28;20439;-80
2023/07/26 10:13:15;;;;;;;1.40;1.40;;;16.30;99.90;;;;;;5097300;28;20535;-78
2023/07/26 10:16:05;;;;;;;1.90;1.80;;;16.40;99.90;;;;;;5096535;28;20566;-78
2023/07/26 10:18:47;;;;;;;1.70;1.60;;;16.50;99.90;;;;;;5097019;28;20509;-77
2023/07/26 10:21:24;;;;;;;2.20;2.00;;;16.30;99.90;;;;;;5095179;28;20458;-79
2023/07/26 10:23:53;;;;;;;3.43;2.20;;;16.20;99.90;;;;;;5093975;28;20448;-78
2023/07/26 10:26:36;;;;;;;2.40;2.30;;;16.40;99.90;;;;;;5094721;28;20452;-80
2023/07/26 10:29:07;;;;;;;2.63;2.20;;;16.20;99.90;;;;;;5092513;28;20471;-78
2023/07/26 10:31:37;;;;;;;1.80;1.70;;;16.20;99.90;;;;;;5094827;28;20448;-78
2023/07/26 10:34:19;;;;;;;1.70;1.67;;;16.30;99.90;;;;;;5093468;28;20470;-78
2023/07/26 10:37:14;;;;;;;2.33;2.20;;;16.30;99.90;;;;;;5088488;28;20859;-80
2023/07/26 10:39:48;;;;;;;3.10;2.13;;;16.20;99.90;;;;;;5091606;28;20435;-78
2023/07/26 10:42:41;;;;;;;1.80;1.70;;;16.30;99.90;;;;;;5093645;28;20474;-79
2023/07/26 10:45:40;;;;;;;1.57;1.57;;;16.50;99.90;;;;;;5091860;28;20466;-81
2023/07/26 10:51:02;;;;;;;3.87;2.13;;;16.70;99.90;;;;;;5094022;28;20424;-82
2023/07/26 10:53:37;;;;;;;3.67;2.43;;;16.70;99.90;;;;;;5100240;28;20443;-82
2023/07/26 10:56:09;;;;;;;2.60;2.40;;;16.90;99.90;;;;;;5101563;28;20455;-80
2023/07/26 10:58:50;;;;;;;3.50;2.33;;;16.50;99.90;;;;;;5107834;28;20479;-79
2023/07/26 11:01:40;;;;;;;2.77;2.57;;;16.70;99.90;;;;;;5110018;28;20427;-78
2023/07/26 11:04:17;;;;;;;3.20;2.40;;;17.20;99.90;;;;;;5110281;28;22147;-80
2023/07/26 11:07:18;;;;;;;3.03;2.70;;;17.50;99.90;;;;;;5109233;28;20436;-80
2023/07/26 11:10:41;;;;;;;2.97;2.77;;;17.70;99.90;;;;;;5108233;28;20436;-80
2023/07/26 11:13:27;;;;;;;3.00;2.20;;;18.10;99.90;;;;;;5105664;28;20443;-80
2023/07/26 11:16:05;;;;;;;2.87;2.67;;;18.10;99.90;;;;;;5106526;28;20468;-79
2023/07/26 11:21:34;;;;;;;2.60;2.43;;;18.40;99.90;;;;;;5093321;28;20452;-80
2023/07/26 11:24:29;;;;;;;2.40;2.20;;;18.30;99.90;;;;;;5095207;28;20452;-79
2023/07/26 11:27:20;;;;;;;2.73;2.53;;;18.30;99.90;;;;;;5090396;28;20444;-80
2023/07/26 11:30:00;;;;;;;5.03;2.70;;;18.40;99.90;;;;;;5096842;28;20493;-80
2023/07/26 11:32:46;;;;;;;3.03;2.70;;;18.70;99.90;;;;;;5100244;28;20448;-80
2023/07/26 11:35:27;;;;;;;3.50;2.70;;;18.70;99.90;;;;;;5099635;28;20448;-78
2023/07/26 11:38:04;;;;;;;2.33;2.23;;;18.90;99.90;;;;;;5100156;28;20995;-80
2023/07/26 11:40:56;;;;;;;;;;;;;;;;;;;;;
2023/07/26 11:43:28;;;;;;;3.07;2.73;;;19.30;99.90;;;;;;5100825;28;20531;-80
2023/07/26 11:45:58;;;;;;;3.03;2.57;;;19.70;99.90;;;;;;5102838;28;20463;-81
2023/07/26 11:48:35;;;;;;;2.90;2.70;;;19.50;99.90;;;;;;5102608;28;20464;-80
2023/07/26 11:51:11;;;;;;;3.03;2.47;;;19.10;99.90;;;;;;5093655;28;20524;-81
2023/07/26 11:54:01;;;;;;;2.60;2.40;;;18.80;99.90;;;;;;5103754;28;20435;-79
2023/07/26 11:56:40;;;;;;;3.20;2.63;;;18.70;99.90;;;;;;5102080;28;20440;-78
2023/07/26 11:59:09;;;;;;;3.77;2.83;;;18.70;99.90;;;;;;5102179;28;20948;-80
2023/07/26 12:01:38;;;;;;;2.43;2.27;;;19.10;99.90;;;;;;5102573;28;20448;-79
2023/07/26 12:04:19;;;;;;;2.60;2.40;;;19.30;99.90;;;;;;5100745;28;20454;-80
2023/07/26 12:06:52;;;;;;;3.57;2.83;;;19.90;99.90;;;;;;5098702;28;20428;-80
2023/07/26 12:09:36;;;;;;;3.40;2.53;;;20.00;99.90;;;;;;5100218;28;20502;-79
2023/07/26 12:12:36;;;;;;;3.30;2.40;;;20.50;99.90;;;;;;5099383;28;20448;-79
2023/07/26 12:15:28;;;;;;;2.93;2.63;;;20.30;99.90;;;;;;5094576;28;20547;-80
2023/07/26 12:18:13;;;;;;;2.90;2.70;;;20.00;99.90;;;;;;5097131;28;20440;-80
2023/07/26 12:21:04;;;;;;;2.73;2.47;;;19.70;99.90;;;;;;5101303;28;20549;-78
2023/07/26 12:26:51;;;;;;;3.03;2.73;;;20.70;99.90;;;;;;5094185;28;20523;-79
2023/07/26 12:29:38;;;;;;;3.23;2.93;;;20.40;99.90;;;;;;5099765;28;20475;-79
2023/07/26 12:32:06;;;;;;;3.10;2.77;;;20.50;99.90;;;;;;5096169;28;20497;-80
2023/07/26 12:34:43;;;;;;;2.97;2.77;;;20.10;99.90;;;;;;5102249;28;20458;-78
2023/07/26 12:37:31;;;;;;;3.17;2.87;;;19.70;99.90;;;;;;5095936;28;20892;-78
2023/07/26 12:40:07;;;;;;;3.70;3.00;;;19.70;99.90;;;;;;5094820;28;20447;-77
2023/07/26 12:42:49;;;;;;;3.67;3.10;;;20.00;99.90;;;;;;5095715;28;20927;-79
2023/07/26 12:48:13;;;;;;;2.83;2.57;;;20.20;99.90;;;;;;5091736;28;20477;-79
2023/07/26 12:50:45;;;;;;;4.13;2.77;;;19.90;99.90;;;;;;5093013;28;20448;-78
2023/07/26 12:53:16;;;;;;;3.13;2.83;;;19.70;99.90;;;;;;5096094;28;20432;-79
2023/07/26 12:55:45;;;;;;;6.67;3.67;;;19.40;99.90;;;;;;5090928;28;20897;-79
2023/07/26 12:58:20;;;;;;;4.93;3.10;;;19.10;99.90;;;;;;5094311;28;20428;-80
2023/07/26 13:00:58;;;;;;;6.30;3.23;;;18.70;99.90;;;;;;5092182;28;20481;-77
2023/07/26 13:03:26;;;;;;;5.73;3.30;;;18.20;99.90;;;;;;5095093;28;20908;-78
2023/07/26 13:05:56;;;;;;;3.60;3.30;;;18.30;99.90;;;;;;5095281;28;20482;-78
2023/07/26 13:08:29;;;;;;;3.00;2.80;;;18.70;99.90;;;;;;5090178;28;20483;-78
2023/07/26 13:11:00;;;;;;;5.63;3.90;;;18.70;99.90;;;;;;5096320;28;20815;-78
2023/07/26 13:13:37;;;;;;;3.27;3.07;;;18.70;99.90;;;;;;5097052;28;20438;-78
2023/07/26 13:16:06;;;;;;;5.43;3.30;;;18.80;99.90;;;;;;5096460;28;20981;-77
2023/07/26 13:18:48;;;;;;;3.50;3.20;;;19.00;99.90;;;;;;5096898;28;20495;-78
2023/07/26 13:21:28;;;;;;;3.33;3.03;;;19.30;99.90;;;;;;5096198;28;20455;-78
2023/07/26 13:24:14;;;;;;;3.60;3.30;;;19.20;99.90;;;;;;5096143;28;20451;-78
2023/07/26 13:26:56;;;;;;;3.20;3.00;;;19.20;99.90;;;;;;5095743;28;20444;-79
2023/07/26 13:29:55;;;;;;;3.53;3.30;;;19.00;99.90;;;;;;5092479;28;20479;-79
2023/07/26 13:32:52;;;;;;;3.37;3.10;;;19.20;99.90;;;;;;5029518;28;20446;-77
2023/07/26 13:35:21;;;;;;;2.93;2.73;;;19.20;99.90;;;;;;5033006;28;20462;-76
2023/07/26 13:37:53;;;;;;;3.50;3.20;;;19.00;99.90;;;;;;5084899;28;20440;-78
2023/07/26 13:40:22;;;;;;;3.50;3.20;;;18.80;99.90;;;;;;5099637;28;20409;-77
2023/07/26 13:43:02;;;;;;;4.30;2.80;;;18.90;99.90;;;;;;5095161;28;20483;-77
2023/07/26 13:45:51;;;;;;;3.63;3.33;;;19.20;99.90;;;;;;5096612;28;20460;-76
2023/07/26 13:48:23;;;;;;;3.13;2.93;;;19.60;99.90;;;;;;5098910;28;20567;-78
2023/07/26 13:51:02;;;;;;;2.87;2.67;;;19.90;99.90;;;;;;5097348;28;20471;-79
2023/07/26 13:53:39;;;;;;;6.53;3.07;;;;;;;;;;5099318;28;20440;-79
2023/07/26 13:56:14;;;;;;;3.10;2.63;;;20.60;99.90;;;;;;5101482;28;21006;-80
2023/07/26 13:58:42;;;;;;;3.20;2.90;;;20.10;99.90;;;;;;5107316;28;20443;-78
2023/07/26 14:01:12;;;;;;;2.87;2.67;;;20.10;99.90;;;;;;5103952;28;20454;-79
2023/07/26 14:03:42;;;;;;;3.27;2.97;;;20.20;99.90;;;;;;5104841;28;20526;-76
2023/07/26 14:06:36;;;;;;;2.77;2.57;;;19.70;99.90;;;;;;5103956;28;20468;-80
2023/07/26 14:09:11;;;;;;;2.90;2.80;;;19.60;99.90;;;;;;5108253;28;20480;-80
2023/07/26 14:12:01;;;;;;;3.47;3.17;;;19.60;99.90;;;;;;5108331;28;20477;-80
2023/07/26 14:17:22;;;;;;;3.67;3.10;;;19.70;99.90;;;;;;5088154;28;20476;-78
2023/07/26 14:19:55;;;;;;;3.00;2.80;;;19.70;99.90;;;;;;5100621;28;20421;-79
2023/07/26 14:22:50;;;;;;;3.90;3.23;;;19.90;99.90;;;;;;5105834;28;20440;-80
2023/07/26 14:25:31;;;;;;;2.93;2.73;;;20.10;99.90;;;;;;5102500;28;20456;-79
2023/07/26 14:28:16;;;;;;;3.80;3.07;;;20.30;99.90;;;;;;5098472;28;20467;-78
2023/07/26 14:30:45;;;;;;;2.80;2.60;;;20.10;99.90;;;;;;5098363;28;20431;-79
2023/07/26 14:33:40;;;;;;;3.37;2.53;;;20.10;99.90;;;;;;5096226;28;20818;-79
2023/07/26 14:39:53;;;;;;;3.33;2.90;;;21.00;99.90;;;;;;5118847;28;20427;-79
2023/07/26 14:42:22;;;;;;;3.43;3.13;;;21.20;99.90;;;;;;5115641;28;20451;-75
2023/07/26 14:45:04;;;;;;;;;;;;;;;;;;;;;
2023/07/26 14:47:32;;;;;;;2.83;2.63;;;20.90;99.90;;;;;;5118355;28;20435;-78
2023/07/26 14:50:00;;;;;;;2.73;2.53;;;21.20;99.90;;;;;;5115934;28;20471;-77
2023/07/26 14:52:46;;;;;;;2.73;2.53;;;20.80;99.90;;;;;;5115556;28;20519;-77
2023/07/26 14:55:29;;;;;;;2.97;2.77;;;20.50;99.90;;;;;;5115156;28;20496;-79
2023/07/26 14:58:01;;;;;;;3.93;3.30;;;20.70;99.90;;;;;;5114562;28;20455;-79
2023/07/26 15:01:01;;;;;;;3.60;3.20;;;21.20;99.90;;;;;;5115217;28;20462;-78
2023/07/26 15:03:41;;;;;;;2.87;2.67;;;21.30;99.90;;;;;;5113341;28;20812;-79
2023/07/26 15:06:35;;;;;;;2.90;2.60;;;21.20;99.90;;;;;;5114873;28;20489;-77
2023/07/26 15:15:27;;;;;;;3.97;3.10;;;20.40;99.90;;;;;;5111676;28;20466;-78
2023/07/26 15:18:48;;;;;;;3.70;3.37;;;20.10;99.90;;;;;;5115050;28;20946;-77
2023/07/26 15:21:41;;;;;;;3.43;3.13;;;20.00;99.90;;;;;;5114627;28;20453;-76
2023/07/26 15:24:58;;;;;;;;;;;;;;;;;;;;;
2023/07/26 15:30:38;;;;;;;3.00;2.70;;;19.30;99.90;;;;;;5065508;28;20819;-78
2023/07/26 15:36:35;;;;;;;4.30;2.83;;;18.60;99.90;;;;;;5074223;28;20491;-79
2023/07/26 15:40:12;;;;;;;2.33;2.10;;;18.30;99.90;;;;;;5074644;28;20952;-77
2023/07/26 15:53:30;;;;;;;2.90;2.70;;;17.50;99.90;;;;;;5073429;28;20445;-77
2023/07/26 16:03:15;;;;;;;2.90;2.70;;;17.60;99.90;;;;;;5002524;28;20440;-76
2023/07/26 16:06:07;;;;;;;3.20;2.90;;;18.10;99.90;;;;;;5059803;28;20499;-76
2023/07/26 16:09:21;;;;;;;2.90;2.60;;;18.70;99.90;;;;;;5075797;28;20992;-77
2023/07/26 16:15:28;;;;;;;2.87;2.67;;;19.30;99.90;;;;;;5076975;28;21093;-77
2023/07/26 16:21:20;;;;;;;3.20;3.00;;;19.60;99.90;;;;;;5077873;28;20468;-77
2023/07/26 16:24:17;;;;;;;3.67;2.90;;;19.60;99.90;;;;;;5078726;28;20448;-77
2023/07/26 16:26:53;;;;;;;2.47;2.27;;;19.60;99.90;;;;;;5076454;28;20869;-75
2023/07/26 16:29:20;;;;;;;2.60;2.40;;;19.80;99.90;;;;;;5077547;28;20560;-82
2023/07/26 16:32:17;;;;;;;2.73;2.60;;;19.90;99.90;;;;;;5077487;28;20823;-76
2023/07/26 16:35:18;;;;;;;3.13;2.43;;;20.40;99.90;;;;;;5078849;28;20950;-79
2023/07/26 16:40:29;;;;;;;3.07;2.77;;;20.60;99.90;;;;;;5068440;28;20477;-79
2023/07/26 16:43:13;;;;;;;2.57;2.37;;;20.80;99.90;;;;;;5076166;28;20475;-78
2023/07/26 16:45:46;;;;;;;2.87;2.50;;;20.60;99.90;;;;;;5076502;28;20464;-78
2023/07/26 16:48:36;;;;;;;2.30;2.20;;;20.30;99.90;;;;;;5076866;28;20990;-79
2023/07/26 16:51:06;;;;;;;2.70;2.50;;;20.30;99.90;;;;;;5076404;28;20889;-77
2023/07/26 16:53:50;;;;;;;3.53;2.33;;;20.10;99.90;;;;;;5077332;28;20448;-80
2023/07/26 16:56:22;;;;;;;3.83;2.87;;;20.10;99.90;;;;;;5080177;28;21026;-79
2023/07/26 16:59:02;;;;;;;2.60;2.40;;;20.30;99.90;;;;;;5079544;28;20432;-79
2023/07/26 17:01:39;;;;;;;3.13;2.83;;;20.30;99.90;;;;;;5080071;28;20453;-78
2023/07/26 17:04:25;;;;;;;2.90;2.50;;;20.60;99.90;;;;;;5078314;28;20441;-78